sensor_id;sensor_type;location;lat;lon;timestamp;pressure;altitude;pressure_sealevel;temperature;humidity
11987;BME280;6053;51.382;6.768;2023-06-10T00:00:06;101027.94;;;23.90;53.92
11987;BME280;6053;51.382;6.768;2023-06-10T00:02:36;101027.84;;;24.32;54.60
11987;BME280;6053;51.382;6.768;2023-06-10T00:05:05;101027.44;;;22.68;56.23
11987;BME280;6053;51.382;6.768;2023-06-10T00:07:35;101027.22;;;22.97;57.05
11987;BME280;6053;51.382;6.768;2023-06-10T00:10:05;101034.59;;;23.67;54.84
11987;BME280;6053;51.382;6.768;2023-06-10T00:12:34;101027.19;;;23.16;55.53
11987;BME280;6053;51.382;6.768;2023-06-10T00:15:05;101025.47;;;23.75;54.77
11987;BME280;6053;51.382;6.768;2023-06-10T00:17:36;101023.66;;;23.24;57.50
11987;BME280;6053;51.382;6.768;2023-06-10T00:20:08;101022.75;;;24.20;54.76
11987;BME280;6053;51.382;6.768;2023-06-10T00:22:39;101027.84;;;23.82;53.94
11987;BME280;6053;51.382;6.768;2023-06-10T00:25:09;101019.69;;;24.66;52.95
11987;BME280;6053;51.382;6.768;2023-06-10T00:27:38;101021.41;;;23.81;55.37
11987;BME280;6053;51.382;6.768;2023-06-10T00:30:08;101027.50;;;23.97;56.62
11987;BME280;6053;51.382;6.768;2023-06-10T00:32:38;101024.00;;;24.41;54.28
11987;BME280;6053;51.382;6.768;2023-06-10T00:35:07;101031.50;;;24.68;51.39
11987;BME280;6053;51.382;6.768;2023-06-10T00:37:35;101038.00;;;24.19;54.50
11987;BME280;6053;51.382;6.768;2023-06-10T00:40:06;101034.94;;;23.65;55.12
11987;BME280;6053;51.382;6.768;2023-06-10T00:42:36;101035.28;;;23.03;57.93
11987;BME280;6053;51.382;6.768;2023-06-10T00:45:06;101030.38;;;22.95;55.73
11987;BME280;6053;51.382;6.768;2023-06-10T00:47:36;101029.41;;;23.88;54.70
11987;BME280;6053;51.382;6.768;2023-06-10T00:50:06;101033.44;;;23.40;54.20
11987;BME280;6053;51.382;6.768;2023-06-10T00:52:35;101029.03;;;24.17;55.84
11987;BME280;6053;51.382;6.768;2023-06-10T00:55:05;101037.94;;;25.14;52.75
11987;BME280;6053;51.382;6.768;2023-06-10T00:57:36;101034.16;;;24.96;52.14
11987;BME280;6053;51.382;6.768;2023-06-10T01:00:07;101034.53;;;25.03;49.81
11987;BME280;6053;51.382;6.768;2023-06-10T01:02:38;101038.41;;;24.85;50.12
11987;BME280;6053;51.382;6.768;2023-06-10T01:05:08;101036.91;;;23.65;55.24
11987;BME280;6053;51.382;6.768;2023-06-10T01:07:43;101032.91;;;22.78;57.77
11987;BME280;6053;51.382;6.768;2023-06-10T01:10:22;101033.56;;;23.21;55.34
11987;BME280;6053;51.382;6.768;2023-06-10T01:12:58;101035.91;;;23.00;59.76
11987;BME280;6053;51.382;6.768;2023-06-10T01:15:30;101036.38;;;22.89;57.38
11987;BME280;6053;51.382;6.768;2023-06-10T01:18:02;101036.03;;;23.23;57.01
11987;BME280;6053;51.382;6.768;2023-06-10T01:20:31;101042.19;;;24.08;54.99
11987;BME280;6053;51.382;6.768;2023-06-10T01:23:02;101049.94;;;23.47;56.36
11987;BME280;6053;51.382;6.768;2023-06-10T01:25:31;101051.03;;;24.42;55.05
11987;BME280;6053;51.382;6.768;2023-06-10T01:28:08;101044.94;;;24.49;53.65
11987;BME280;6053;51.382;6.768;2023-06-10T01:30:44;101051.41;;;24.94;52.79
11987;BME280;6053;51.382;6.768;2023-06-10T01:33:19;101043.84;;;25.75;50.45
11987;BME280;6053;51.382;6.768;2023-06-10T01:35:53;101050.75;;;25.91;50.27
11987;BME280;6053;51.382;6.768;2023-06-10T01:38:26;101052.94;;;25.23;48.89
11987;BME280;6053;51.382;6.768;2023-06-10T01:40:56;101042.91;;;25.39;51.52
11987;BME280;6053;51.382;6.768;2023-06-10T01:43:24;101042.63;;;24.96;52.60
11987;BME280;6053;51.382;6.768;2023-06-10T01:45:52;101043.66;;;24.78;50.46
11987;BME280;6053;51.382;6.768;2023-06-10T01:48:21;101035.53;;;24.40;53.48
11987;BME280;6053;51.382;6.768;2023-06-10T01:50:49;101042.53;;;25.10;51.92
11987;BME280;6053;51.382;6.768;2023-06-10T01:53:17;101048.94;;;24.20;54.67
11987;BME280;6053;51.382;6.768;2023-06-10T01:55:47;101043.31;;;23.10;56.22
11987;BME280;6053;51.382;6.768;2023-06-10T01:58:15;101040.44;;;24.34;54.25
11987;BME280;6053;51.382;6.768;2023-06-10T02:00:43;101041.28;;;23.98;54.56
11987;BME280;6053;51.382;6.768;2023-06-10T02:03:12;101042.19;;;24.08;56.11
11987;BME280;6053;51.382;6.768;2023-06-10T02:05:40;101041.28;;;23.57;57.61
11987;BME280;6053;51.382;6.768;2023-06-10T02:08:08;101040.66;;;23.60;55.14
11987;BME280;6053;51.382;6.768;2023-06-10T02:10:37;101041.34;;;22.59;57.98
11987;BME280;6053;51.382;6.768;2023-06-10T02:13:06;101044.22;;;22.40;63.06
11987;BME280;6053;51.382;6.768;2023-06-10T02:15:34;101039.88;;;23.13;59.60
11987;BME280;6053;51.382;6.768;2023-06-10T02:18:03;101045.56;;;23.96;57.84
11987;BME280;6053;51.382;6.768;2023-06-10T02:20:31;101048.22;;;22.86;58.92
11987;BME280;6053;51.382;6.768;2023-06-10T02:23:00;101042.88;;;22.70;59.17
11987;BME280;6053;51.382;6.768;2023-06-10T02:25:28;101045.38;;;23.65;59.14
11987;BME280;6053;51.382;6.768;2023-06-10T02:27:57;101043.41;;;24.29;56.50
11987;BME280;6053;51.382;6.768;2023-06-10T02:30:26;101051.91;;;23.60;58.18
11987;BME280;6053;51.382;6.768;2023-06-10T02:32:54;101053.97;;;24.60;55.27
11987;BME280;6053;51.382;6.768;2023-06-10T02:35:23;101045.09;;;23.20;59.69
11987;BME280;6053;51.382;6.768;2023-06-10T02:37:52;101051.47;;;23.25;57.64
11987;BME280;6053;51.382;6.768;2023-06-10T02:40:20;101049.56;;;20.63;69.03
11987;BME280;6053;51.382;6.768;2023-06-10T02:42:48;101047.84;;;21.55;66.76
11987;BME280;6053;51.382;6.768;2023-06-10T02:45:16;101052.34;;;21.99;65.05
11987;BME280;6053;51.382;6.768;2023-06-10T02:47:46;101042.50;;;22.39;62.59
11987;BME280;6053;51.382;6.768;2023-06-10T02:50:15;101048.50;;;23.77;59.49
11987;BME280;6053;51.382;6.768;2023-06-10T02:52:43;101048.56;;;22.84;61.80
11987;BME280;6053;51.382;6.768;2023-06-10T02:55:12;101044.59;;;21.91;62.99
11987;BME280;6053;51.382;6.768;2023-06-10T02:57:40;101045.34;;;21.77;67.21
11987;BME280;6053;51.382;6.768;2023-06-10T03:00:09;101050.63;;;21.79;66.29
11987;BME280;6053;51.382;6.768;2023-06-10T03:02:38;101050.38;;;21.99;66.47
11987;BME280;6053;51.382;6.768;2023-06-10T03:05:08;101045.19;;;22.30;63.04
11987;BME280;6053;51.382;6.768;2023-06-10T03:07:38;101042.00;;;22.37;61.89
11987;BME280;6053;51.382;6.768;2023-06-10T03:10:08;101044.09;;;22.07;63.90
11987;BME280;6053;51.382;6.768;2023-06-10T03:12:36;101049.31;;;20.94;70.24
11987;BME280;6053;51.382;6.768;2023-06-10T03:15:06;101048.09;;;21.58;68.20
11987;BME280;6053;51.382;6.768;2023-06-10T03:17:35;101046.47;;;22.19;66.04
11987;BME280;6053;51.382;6.768;2023-06-10T03:20:04;101053.03;;;22.33;64.96
11987;BME280;6053;51.382;6.768;2023-06-10T03:22:36;101047.34;;;23.64;60.33
11987;BME280;6053;51.382;6.768;2023-06-10T03:25:06;101059.75;;;22.51;61.28
11987;BME280;6053;51.382;6.768;2023-06-10T03:27:42;101058.84;;;23.08;60.95
11987;BME280;6053;51.382;6.768;2023-06-10T03:30:12;101062.81;;;21.69;64.51
11987;BME280;6053;51.382;6.768;2023-06-10T03:32:41;101062.66;;;22.27;66.13
11987;BME280;6053;51.382;6.768;2023-06-10T03:35:10;101068.13;;;21.95;64.38
11987;BME280;6053;51.382;6.768;2023-06-10T03:37:40;101068.19;;;22.51;64.49
11987;BME280;6053;51.382;6.768;2023-06-10T03:40:09;101072.59;;;22.20;63.95
11987;BME280;6053;51.382;6.768;2023-06-10T03:42:38;101067.84;;;21.72;68.53
11987;BME280;6053;51.382;6.768;2023-06-10T03:45:07;101071.94;;;23.45;60.49
11987;BME280;6053;51.382;6.768;2023-06-10T03:47:37;101066.69;;;22.40;65.36
11987;BME280;6053;51.382;6.768;2023-06-10T03:50:09;101080.28;;;22.52;62.81
11987;BME280;6053;51.382;6.768;2023-06-10T03:52:39;101083.66;;;21.10;67.88
11987;BME280;6053;51.382;6.768;2023-06-10T03:55:09;101081.78;;;22.63;64.67
11987;BME280;6053;51.382;6.768;2023-06-10T03:57:38;101079.56;;;23.58;60.87
11987;BME280;6053;51.382;6.768;2023-06-10T04:00:08;101089.97;;;24.40;57.53
11987;BME280;6053;51.382;6.768;2023-06-10T04:02:38;101080.75;;;23.98;56.93
11987;BME280;6053;51.382;6.768;2023-06-10T04:05:13;101083.66;;;23.93;58.09
11987;BME280;6053;51.382;6.768;2023-06-10T04:07:43;101087.09;;;23.76;59.52
11987;BME280;6053;51.382;6.768;2023-06-10T04:10:12;101084.25;;;23.63;60.38
11987;BME280;6053;51.382;6.768;2023-06-10T04:12:40;101082.69;;;23.57;60.67
11987;BME280;6053;51.382;6.768;2023-06-10T04:15:09;101089.78;;;22.37;63.88
11987;BME280;6053;51.382;6.768;2023-06-10T04:17:38;101089.34;;;21.82;64.85
11987;BME280;6053;51.382;6.768;2023-06-10T04:20:08;101099.34;;;22.55;63.35
11987;BME280;6053;51.382;6.768;2023-06-10T04:22:36;101090.31;;;23.10;60.99
11987;BME280;6053;51.382;6.768;2023-06-10T04:25:08;101106.13;;;23.85;59.70
11987;BME280;6053;51.382;6.768;2023-06-10T04:27:37;101105.03;;;22.69;64.78
11987;BME280;6053;51.382;6.768;2023-06-10T04:30:06;101109.97;;;24.03;59.56
11987;BME280;6053;51.382;6.768;2023-06-10T04:32:35;101107.16;;;24.89;56.33
11987;BME280;6053;51.382;6.768;2023-06-10T04:35:05;101114.59;;;25.92;52.80
11987;BME280;6053;51.382;6.768;2023-06-10T04:37:34;101118.44;;;26.71;50.19
11987;BME280;6053;51.382;6.768;2023-06-10T04:40:02;101114.25;;;27.12;48.99
11987;BME280;6053;51.382;6.768;2023-06-10T04:42:33;101120.72;;;27.12;49.34
11987;BME280;6053;51.382;6.768;2023-06-10T04:45:02;101113.59;;;26.71;49.07
11987;BME280;6053;51.382;6.768;2023-06-10T04:47:30;101111.25;;;27.72;46.90
11987;BME280;6053;51.382;6.768;2023-06-10T04:50:00;101110.19;;;27.94;46.29
11987;BME280;6053;51.382;6.768;2023-06-10T04:52:29;101102.91;;;28.14;45.39
11987;BME280;6053;51.382;6.768;2023-06-10T04:54:58;101102.94;;;28.35;44.87
11987;BME280;6053;51.382;6.768;2023-06-10T04:57:26;101112.25;;;28.65;44.32
11987;BME280;6053;51.382;6.768;2023-06-10T04:59:56;101111.47;;;28.98;43.53
11987;BME280;6053;51.382;6.768;2023-06-10T05:02:24;101121.31;;;29.22;42.79
11987;BME280;6053;51.382;6.768;2023-06-10T05:04:52;101110.22;;;27.86;44.54
11987;BME280;6053;51.382;6.768;2023-06-10T05:07:22;101106.91;;;27.11;47.89
11987;BME280;6053;51.382;6.768;2023-06-10T05:09:50;101111.28;;;25.05;51.29
11987;BME280;6053;51.382;6.768;2023-06-10T05:12:18;101112.94;;;26.92;48.19
11987;BME280;6053;51.382;6.768;2023-06-10T05:14:46;101110.03;;;26.31;49.86
11987;BME280;6053;51.382;6.768;2023-06-10T05:17:16;101114.09;;;25.28;52.67
11987;BME280;6053;51.382;6.768;2023-06-10T05:19:44;101111.06;;;25.47;53.77
11987;BME280;6053;51.382;6.768;2023-06-10T05:22:14;101111.94;;;24.66;54.70
11987;BME280;6053;51.382;6.768;2023-06-10T05:24:43;101117.13;;;24.36;55.94
11987;BME280;6053;51.382;6.768;2023-06-10T05:27:11;101128.91;;;25.64;51.65
11987;BME280;6053;51.382;6.768;2023-06-10T05:29:40;101121.34;;;24.61;54.07
11987;BME280;6053;51.382;6.768;2023-06-10T05:32:08;101113.66;;;25.74;51.25
11987;BME280;6053;51.382;6.768;2023-06-10T05:34:38;101117.66;;;25.73;51.81
11987;BME280;6053;51.382;6.768;2023-06-10T05:37:06;101115.31;;;26.06;50.71
11987;BME280;6053;51.382;6.768;2023-06-10T05:39:35;101124.47;;;24.96;54.31
11987;BME280;6053;51.382;6.768;2023-06-10T05:42:07;101119.44;;;24.70;53.24
11987;BME280;6053;51.382;6.768;2023-06-10T05:44:35;101121.41;;;25.60;53.15
11987;BME280;6053;51.382;6.768;2023-06-10T05:47:04;101123.69;;;23.63;57.03
11987;BME280;6053;51.382;6.768;2023-06-10T05:49:33;101132.28;;;25.44;54.30
11987;BME280;6053;51.382;6.768;2023-06-10T05:52:03;101121.91;;;26.59;50.36
11987;BME280;6053;51.382;6.768;2023-06-10T05:54:31;101123.00;;;26.32;50.38
11987;BME280;6053;51.382;6.768;2023-06-10T05:57:00;101126.38;;;25.23;52.33
11987;BME280;6053;51.382;6.768;2023-06-10T05:59:28;101123.63;;;26.12;49.65
11987;BME280;6053;51.382;6.768;2023-06-10T06:01:56;101134.66;;;26.30;49.46
11987;BME280;6053;51.382;6.768;2023-06-10T06:04:24;101124.59;;;25.98;48.86
11987;BME280;6053;51.382;6.768;2023-06-10T06:06:53;101130.59;;;25.66;52.04
11987;BME280;6053;51.382;6.768;2023-06-10T06:09:22;101135.22;;;25.30;49.21
11987;BME280;6053;51.382;6.768;2023-06-10T06:11:51;101134.41;;;27.10;47.70
11987;BME280;6053;51.382;6.768;2023-06-10T06:14:19;101135.94;;;26.90;48.55
11987;BME280;6053;51.382;6.768;2023-06-10T06:16:47;101139.97;;;26.23;47.16
11987;BME280;6053;51.382;6.768;2023-06-10T06:19:16;101128.59;;;26.72;47.95
11987;BME280;6053;51.382;6.768;2023-06-10T06:21:44;101146.19;;;25.94;47.37
11987;BME280;6053;51.382;6.768;2023-06-10T06:24:13;101135.09;;;25.75;48.75
11987;BME280;6053;51.382;6.768;2023-06-10T06:26:43;101130.81;;;24.43;52.46
11987;BME280;6053;51.382;6.768;2023-06-10T06:29:12;101138.59;;;25.41;49.05
11987;BME280;6053;51.382;6.768;2023-06-10T06:31:40;101131.53;;;24.49;51.75
11987;BME280;6053;51.382;6.768;2023-06-10T06:34:08;101132.38;;;24.49;51.73
11987;BME280;6053;51.382;6.768;2023-06-10T06:36:39;101134.38;;;24.85;50.28
11987;BME280;6053;51.382;6.768;2023-06-10T06:39:07;101139.16;;;24.84;48.59
11987;BME280;6053;51.382;6.768;2023-06-10T06:45:43;101141.44;;;24.60;49.23
11987;BME280;6053;51.382;6.768;2023-06-10T06:48:12;101137.19;;;25.92;46.41
11987;BME280;6053;51.382;6.768;2023-06-10T06:50:40;101140.75;;;25.13;48.76
11987;BME280;6053;51.382;6.768;2023-06-10T06:53:09;101148.06;;;25.45;48.13
11987;BME280;6053;51.382;6.768;2023-06-10T06:55:38;101149.47;;;25.25;46.68
11987;BME280;6053;51.382;6.768;2023-06-10T06:58:06;101147.56;;;25.66;45.81
11987;BME280;6053;51.382;6.768;2023-06-10T07:00:35;101140.63;;;26.20;47.09
11987;BME280;6053;51.382;6.768;2023-06-10T07:03:05;101152.81;;;26.29;44.29
11987;BME280;6053;51.382;6.768;2023-06-10T07:05:34;101154.72;;;26.60;45.06
11987;BME280;6053;51.382;6.768;2023-06-10T07:08:03;101145.38;;;27.29;43.49
11987;BME280;6053;51.382;6.768;2023-06-10T07:10:32;101142.03;;;27.36;44.08
11987;BME280;6053;51.382;6.768;2023-06-10T07:13:00;101142.63;;;27.76;42.84
11987;BME280;6053;51.382;6.768;2023-06-10T07:15:30;101145.81;;;28.42;40.62
11987;BME280;6053;51.382;6.768;2023-06-10T07:17:59;101143.09;;;26.88;42.79
11987;BME280;6053;51.382;6.768;2023-06-10T07:20:29;101158.31;;;28.12;41.40
11987;BME280;6053;51.382;6.768;2023-06-10T07:22:57;101146.72;;;27.23;43.37
11987;BME280;6053;51.382;6.768;2023-06-10T07:25:26;101150.75;;;28.25;41.29
11987;BME280;6053;51.382;6.768;2023-06-10T07:27:54;101149.66;;;27.61;41.40
11987;BME280;6053;51.382;6.768;2023-06-10T07:30:23;101139.13;;;28.17;41.24
11987;BME280;6053;51.382;6.768;2023-06-10T07:32:51;101148.78;;;27.78;40.71
11987;BME280;6053;51.382;6.768;2023-06-10T07:35:20;101150.44;;;27.79;40.50
11987;BME280;6053;51.382;6.768;2023-06-10T07:37:49;101140.34;;;27.61;43.21
11987;BME280;6053;51.382;6.768;2023-06-10T07:40:18;101141.38;;;28.54;39.46
11987;BME280;6053;51.382;6.768;2023-06-10T07:42:46;101147.25;;;28.57;38.18
11987;BME280;6053;51.382;6.768;2023-06-10T07:45:15;101140.94;;;27.84;39.52
11987;BME280;6053;51.382;6.768;2023-06-10T07:47:43;101146.97;;;27.73;40.06
11987;BME280;6053;51.382;6.768;2023-06-10T07:50:12;101142.03;;;27.36;41.33
11987;BME280;6053;51.382;6.768;2023-06-10T07:52:40;101140.91;;;27.37;41.01
11987;BME280;6053;51.382;6.768;2023-06-10T07:55:10;101149.19;;;27.50;40.61
11987;BME280;6053;51.382;6.768;2023-06-10T07:57:38;101149.22;;;27.98;40.62
11987;BME280;6053;51.382;6.768;2023-06-10T08:00:09;101144.56;;;28.23;40.49
11987;BME280;6053;51.382;6.768;2023-06-10T08:02:38;101145.97;;;28.46;41.73
11987;BME280;6053;51.382;6.768;2023-06-10T08:05:07;101150.91;;;28.79;38.51
11987;BME280;6053;51.382;6.768;2023-06-10T08:07:36;101151.50;;;29.26;37.19
11987;BME280;6053;51.382;6.768;2023-06-10T08:10:06;101144.94;;;28.21;39.11
11987;BME280;6053;51.382;6.768;2023-06-10T08:12:36;101143.50;;;28.65;39.97
11987;BME280;6053;51.382;6.768;2023-06-10T08:15:06;101146.00;;;30.00;38.10
11987;BME280;6053;51.382;6.768;2023-06-10T08:17:35;101144.16;;;28.41;39.04
11987;BME280;6053;51.382;6.768;2023-06-10T08:20:05;101139.06;;;28.77;39.38
11987;BME280;6053;51.382;6.768;2023-06-10T08:22:33;101146.66;;;29.60;39.66
11987;BME280;6053;51.382;6.768;2023-06-10T08:25:02;101148.47;;;29.31;37.33
11987;BME280;6053;51.382;6.768;2023-06-10T08:27:30;101150.09;;;29.32;38.57
11987;BME280;6053;51.382;6.768;2023-06-10T08:30:00;101154.66;;;30.16;36.24
11987;BME280;6053;51.382;6.768;2023-06-10T08:32:29;101150.63;;;29.92;37.13
11987;BME280;6053;51.382;6.768;2023-06-10T08:34:58;101153.72;;;29.21;37.96
11987;BME280;6053;51.382;6.768;2023-06-10T08:37:26;101160.25;;;29.54;39.54
11987;BME280;6053;51.382;6.768;2023-06-10T08:39:54;101152.16;;;30.51;38.29
11987;BME280;6053;51.382;6.768;2023-06-10T08:42:27;101150.56;;;29.68;36.81
11987;BME280;6053;51.382;6.768;2023-06-10T08:44:56;101153.41;;;30.25;36.03
11987;BME280;6053;51.382;6.768;2023-06-10T08:47:30;101162.31;;;29.33;38.95
11987;BME280;6053;51.382;6.768;2023-06-10T08:50:04;101156.34;;;28.63;38.77
11987;BME280;6053;51.382;6.768;2023-06-10T08:52:36;101153.94;;;30.56;35.85
11987;BME280;6053;51.382;6.768;2023-06-10T08:55:12;101142.69;;;30.99;35.08
11987;BME280;6053;51.382;6.768;2023-06-10T08:57:42;101160.25;;;30.37;35.61
11987;BME280;6053;51.382;6.768;2023-06-10T09:00:13;101149.56;;;28.97;38.29
11987;BME280;6053;51.382;6.768;2023-06-10T09:02:43;101146.41;;;28.99;40.43
11987;BME280;6053;51.382;6.768;2023-06-10T09:05:12;101142.41;;;29.66;37.57
11987;BME280;6053;51.382;6.768;2023-06-10T09:07:42;101151.09;;;29.82;36.46
11987;BME280;6053;51.382;6.768;2023-06-10T09:10:12;101148.00;;;30.61;37.08
11987;BME280;6053;51.382;6.768;2023-06-10T09:12:40;101142.34;;;29.54;36.58
11987;BME280;6053;51.382;6.768;2023-06-10T09:15:10;101143.66;;;30.39;37.46
11987;BME280;6053;51.382;6.768;2023-06-10T09:17:39;101143.94;;;30.62;36.20
11987;BME280;6053;51.382;6.768;2023-06-10T09:20:10;101141.47;;;30.60;36.60
11987;BME280;6053;51.382;6.768;2023-06-10T09:22:41;101143.44;;;30.19;35.42
11987;BME280;6053;51.382;6.768;2023-06-10T09:25:12;101134.41;;;30.42;37.94
11987;BME280;6053;51.382;6.768;2023-06-10T09:27:48;101133.97;;;30.80;34.28
11987;BME280;6053;51.382;6.768;2023-06-10T09:30:26;101135.78;;;30.60;37.71
11987;BME280;6053;51.382;6.768;2023-06-10T09:32:56;101135.63;;;30.81;36.21
11987;BME280;6053;51.382;6.768;2023-06-10T09:35:28;101135.47;;;30.13;35.75
11987;BME280;6053;51.382;6.768;2023-06-10T09:37:58;101128.28;;;30.68;35.88
11987;BME280;6053;51.382;6.768;2023-06-10T09:40:27;101132.38;;;31.51;36.07
11987;BME280;6053;51.382;6.768;2023-06-10T09:42:57;101131.91;;;30.93;34.35
11987;BME280;6053;51.382;6.768;2023-06-10T09:45:30;101136.59;;;30.85;36.98
11987;BME280;6053;51.382;6.768;2023-06-10T09:48:00;101132.50;;;30.34;34.53
11987;BME280;6053;51.382;6.768;2023-06-10T09:50:33;101130.84;;;30.33;37.51
11987;BME280;6053;51.382;6.768;2023-06-10T09:53:02;101124.34;;;30.85;35.52
11987;BME280;6053;51.382;6.768;2023-06-10T09:55:33;101115.72;;;31.69;36.22
11987;BME280;6053;51.382;6.768;2023-06-10T09:58:02;101129.22;;;31.40;34.52
11987;BME280;6053;51.382;6.768;2023-06-10T10:00:32;101125.94;;;31.70;33.13
11987;BME280;6053;51.382;6.768;2023-06-10T10:03:01;101127.22;;;31.13;34.71
11987;BME280;6053;51.382;6.768;2023-06-10T10:05:31;101127.59;;;31.71;35.71
11987;BME280;6053;51.382;6.768;2023-06-10T10:08:00;101123.22;;;31.30;33.84
11987;BME280;6053;51.382;6.768;2023-06-10T10:10:29;101128.81;;;30.98;35.47
11987;BME280;6053;51.382;6.768;2023-06-10T10:12:58;101126.16;;;30.65;36.69
11987;BME280;6053;51.382;6.768;2023-06-10T10:15:31;101116.28;;;30.74;37.12
11987;BME280;6053;51.382;6.768;2023-06-10T10:18:07;101122.97;;;31.07;33.82
11987;BME280;6053;51.382;6.768;2023-06-10T10:20:46;101118.69;;;31.73;33.72
11987;BME280;6053;51.382;6.768;2023-06-10T10:23:20;101112.31;;;29.65;36.13
11987;BME280;6053;51.382;6.768;2023-06-10T10:25:53;101118.91;;;30.67;34.95
11987;BME280;6053;51.382;6.768;2023-06-10T10:28:24;101108.19;;;30.89;33.47
11987;BME280;6053;51.382;6.768;2023-06-10T10:31:01;101114.75;;;30.77;34.45
11987;BME280;6053;51.382;6.768;2023-06-10T10:33:41;101115.66;;;30.16;34.57
11987;BME280;6053;51.382;6.768;2023-06-10T10:36:12;101112.13;;;30.84;34.65
11987;BME280;6053;51.382;6.768;2023-06-10T10:38:42;101108.78;;;31.38;33.28
11987;BME280;6053;51.382;6.768;2023-06-10T10:41:11;101109.53;;;30.79;33.06
11987;BME280;6053;51.382;6.768;2023-06-10T10:43:41;101103.47;;;31.37;33.28
11987;BME280;6053;51.382;6.768;2023-06-10T10:46:13;101095.22;;;31.48;32.25
11987;BME280;6053;51.382;6.768;2023-06-10T10:48:43;101112.53;;;31.27;32.93
11987;BME280;6053;51.382;6.768;2023-06-10T10:51:15;101090.63;;;31.43;33.77
11987;BME280;6053;51.382;6.768;2023-06-10T10:53:44;101094.78;;;30.89;32.71
11987;BME280;6053;51.382;6.768;2023-06-10T10:56:32;101090.78;;;30.78;33.93
11987;BME280;6053;51.382;6.768;2023-06-10T10:59:04;101102.28;;;31.38;31.93
11987;BME280;6053;51.382;6.768;2023-06-10T11:01:43;101094.75;;;31.17;32.62
11987;BME280;6053;51.382;6.768;2023-06-10T11:04:14;101097.13;;;30.59;33.27
11987;BME280;6053;51.382;6.768;2023-06-10T11:06:54;101092.06;;;30.81;30.50
11987;BME280;6053;51.382;6.768;2023-06-10T11:09:27;101093.13;;;30.36;32.83
11987;BME280;6053;51.382;6.768;2023-06-10T11:11:58;101092.03;;;30.52;33.28
11987;BME280;6053;51.382;6.768;2023-06-10T11:14:27;101083.91;;;30.67;35.83
11987;BME280;6053;51.382;6.768;2023-06-10T11:16:57;101076.16;;;31.52;33.96
11987;BME280;6053;51.382;6.768;2023-06-10T11:19:36;101080.53;;;30.89;34.71
11987;BME280;6053;51.382;6.768;2023-06-10T11:22:08;101082.72;;;30.68;31.48
11987;BME280;6053;51.382;6.768;2023-06-10T11:24:37;101077.31;;;30.91;35.24
11987;BME280;6053;51.382;6.768;2023-06-10T11:27:17;101075.00;;;30.81;35.76
11987;BME280;6053;51.382;6.768;2023-06-10T11:32:42;101072.22;;;31.56;34.12
11987;BME280;6053;51.382;6.768;2023-06-10T11:35:11;101069.00;;;31.74;34.39
11987;BME280;6053;51.382;6.768;2023-06-10T11:37:41;101064.84;;;30.95;32.27
11987;BME280;6053;51.382;6.768;2023-06-10T11:40:11;101063.97;;;30.67;32.65
11987;BME280;6053;51.382;6.768;2023-06-10T11:42:41;101071.31;;;30.40;32.31
11987;BME280;6053;51.382;6.768;2023-06-10T11:45:14;101064.47;;;30.69;32.14
11987;BME280;6053;51.382;6.768;2023-06-10T11:47:56;101058.09;;;30.88;33.90
11987;BME280;6053;51.382;6.768;2023-06-10T11:50:30;101057.66;;;30.73;32.53
11987;BME280;6053;51.382;6.768;2023-06-10T11:53:00;101062.16;;;30.74;32.02
11987;BME280;6053;51.382;6.768;2023-06-10T11:55:44;101049.22;;;31.49;31.29
11987;BME280;6053;51.382;6.768;2023-06-10T11:58:14;101059.56;;;31.26;31.05
11987;BME280;6053;51.382;6.768;2023-06-10T12:00:47;101052.81;;;30.62;31.49
11987;BME280;6053;51.382;6.768;2023-06-10T12:03:15;101055.41;;;30.39;32.58
11987;BME280;6053;51.382;6.768;2023-06-10T12:05:57;101053.16;;;30.72;31.63
11987;BME280;6053;51.382;6.768;2023-06-10T12:08:27;101053.41;;;31.23;30.37
11987;BME280;6053;51.382;6.768;2023-06-10T12:10:57;101053.84;;;30.82;31.18
11987;BME280;6053;51.382;6.768;2023-06-10T12:13:27;101053.50;;;30.83;31.18
11987;BME280;6053;51.382;6.768;2023-06-10T12:16:06;101053.03;;;30.41;33.58
11987;BME280;6053;51.382;6.768;2023-06-10T12:18:35;101049.22;;;31.05;33.85
11987;BME280;6053;51.382;6.768;2023-06-10T12:21:16;101037.97;;;30.68;30.05
11987;BME280;6053;51.382;6.768;2023-06-10T12:24:07;101040.63;;;30.21;30.81
11987;BME280;6053;51.382;6.768;2023-06-10T12:26:41;101040.38;;;30.79;30.67
11987;BME280;6053;51.382;6.768;2023-06-10T12:29:20;101034.69;;;30.94;31.23
11987;BME280;6053;51.382;6.768;2023-06-10T12:32:01;101037.00;;;30.89;30.32
11987;BME280;6053;51.382;6.768;2023-06-10T12:34:32;101032.38;;;30.84;30.86
11987;BME280;6053;51.382;6.768;2023-06-10T12:37:01;101037.28;;;31.15;31.42
11987;BME280;6053;51.382;6.768;2023-06-10T12:39:33;101038.41;;;31.27;30.91
11987;BME280;6053;51.382;6.768;2023-06-10T12:42:01;101039.91;;;30.64;30.63
11987;BME280;6053;51.382;6.768;2023-06-10T12:44:33;101026.88;;;30.91;30.09
11987;BME280;6053;51.382;6.768;2023-06-10T12:47:08;101042.25;;;31.18;32.43
11987;BME280;6053;51.382;6.768;2023-06-10T12:49:37;101028.44;;;30.89;30.06
11987;BME280;6053;51.382;6.768;2023-06-10T12:52:07;101042.22;;;30.74;30.76
11987;BME280;6053;51.382;6.768;2023-06-10T12:54:36;101034.88;;;30.73;29.88
11987;BME280;6053;51.382;6.768;2023-06-10T12:57:05;101048.06;;;30.78;31.90
11987;BME280;6053;51.382;6.768;2023-06-10T12:59:33;101031.22;;;31.01;31.18
11987;BME280;6053;51.382;6.768;2023-06-10T13:02:02;101028.75;;;31.31;32.46
11987;BME280;6053;51.382;6.768;2023-06-10T13:04:30;101026.31;;;31.02;30.86
11987;BME280;6053;51.382;6.768;2023-06-10T13:06:59;101030.84;;;30.74;31.38
11987;BME280;6053;51.382;6.768;2023-06-10T13:09:28;101019.78;;;30.85;31.98
11987;BME280;6053;51.382;6.768;2023-06-10T13:11:57;101026.72;;;31.32;30.80
11987;BME280;6053;51.382;6.768;2023-06-10T13:14:27;101027.53;;;31.00;31.98
11987;BME280;6053;51.382;6.768;2023-06-10T13:16:55;101026.13;;;30.94;31.77
11987;BME280;6053;51.382;6.768;2023-06-10T13:19:24;101016.66;;;30.90;31.81
11987;BME280;6053;51.382;6.768;2023-06-10T13:21:52;101020.88;;;30.68;31.82